createdAt,value
2023-05-01T00:01:08.202Z,3.53
2023-05-01T00:03:55.286Z,2.50
2023-05-01T00:06:42.558Z,2.93
2023-05-01T00:09:29.653Z,2.40
2023-05-01T00:12:16.896Z,3.10
2023-05-01T00:15:04.224Z,2.77
2023-05-01T00:17:51.613Z,2.53
2023-05-01T00:20:39.004Z,2.60
2023-05-01T00:23:26.156Z,3.20
2023-05-01T00:26:13.197Z,2.70
2023-05-01T00:29:03.718Z,2.57
2023-05-01T00:31:50.771Z,3.07
2023-05-01T00:34:37.834Z,2.70
2023-05-01T00:37:24.832Z,2.60
2023-05-01T00:40:12.143Z,2.77
2023-05-01T00:42:59.171Z,2.90
2023-05-01T00:45:46.494Z,2.40
2023-05-01T00:48:33.710Z,3.23
2023-05-01T00:51:22.331Z,2.60
2023-05-01T00:54:09.598Z,2.67
2023-05-01T00:56:56.854Z,3.00
2023-05-01T00:59:43.878Z,3.00
2023-05-01T01:02:32.764Z,3.00
2023-05-01T01:05:24.412Z,2.80
2023-05-01T01:08:39.240Z,2.53
2023-05-01T01:11:54.805Z,2.80
2023-05-01T01:14:54.025Z,3.07
2023-05-01T01:17:53.514Z,2.60
2023-05-01T01:21:01.508Z,3.33
2023-05-01T01:24:00.962Z,3.07
2023-05-01T01:27:30.951Z,2.60
2023-05-01T01:30:34.722Z,2.80
2023-05-01T01:33:49.352Z,3.13
2023-05-01T01:36:36.265Z,3.07
2023-05-01T01:39:36.491Z,3.07
2023-05-01T01:42:34.897Z,2.73
2023-05-01T01:45:24.182Z,3.03
2023-05-01T01:48:15.159Z,3.17
2023-05-01T01:51:08.480Z,2.87
2023-05-01T01:54:00.369Z,3.57
2023-05-01T01:56:50.161Z,3.30
2023-05-01T01:59:37.229Z,3.00
2023-05-01T02:02:27.555Z,3.53
2023-05-01T02:05:17.717Z,3.27
2023-05-01T02:08:06.048Z,3.30
2023-05-01T02:11:01.749Z,3.50
2023-05-01T02:13:50.479Z,3.80
2023-05-01T02:16:38.024Z,3.27
2023-05-01T02:19:26.354Z,3.40
2023-05-01T02:22:17.131Z,3.50
2023-05-01T02:25:05.467Z,3.57
2023-05-01T02:27:57.835Z,3.67
2023-05-01T02:30:47.119Z,3.83
2023-05-01T02:33:34.116Z,3.43
2023-05-01T02:36:21.209Z,3.27
2023-05-01T02:39:08.515Z,3.50
2023-05-01T02:41:58.937Z,3.20
2023-05-01T02:44:51.857Z,3.33
2023-05-01T02:47:44.032Z,3.40
2023-05-01T02:50:31.704Z,3.33
2023-05-01T02:53:19.403Z,3.93
2023-05-01T02:56:10.135Z,3.40
2023-05-01T02:58:57.241Z,3.57
2023-05-01T03:01:44.338Z,3.20
2023-05-01T03:04:31.568Z,3.40
2023-05-01T03:07:18.600Z,3.27
2023-05-01T03:10:07.866Z,2.90
2023-05-01T03:12:54.898Z,3.20
2023-05-01T03:15:42.326Z,3.30
2023-05-01T03:18:29.401Z,3.93
2023-05-01T03:21:16.482Z,3.57
2023-05-01T03:24:03.575Z,3.57
2023-05-01T03:26:51.251Z,3.17
2023-05-01T03:29:38.292Z,4.13
2023-05-01T03:32:25.489Z,3.53
2023-05-01T03:35:13.842Z,3.50
2023-05-01T03:38:01.125Z,4.30
2023-05-01T03:41:07.187Z,4.00
2023-05-01T03:44:23.201Z,3.30
2023-05-01T03:47:10.751Z,3.43
2023-05-01T03:50:02.402Z,2.93
2023-05-01T03:52:50.319Z,3.47
2023-05-01T03:55:37.453Z,3.77
2023-05-01T03:58:24.574Z,3.13
2023-05-01T04:01:11.689Z,3.50
2023-05-01T04:04:03.533Z,2.80
2023-05-01T04:06:50.900Z,3.33
2023-05-01T04:09:37.995Z,3.27
2023-05-01T04:12:25.001Z,2.93
2023-05-01T04:15:13.266Z,3.17
2023-05-01T04:18:02.233Z,3.30
2023-05-01T04:20:49.425Z,2.93
2023-05-01T04:23:36.451Z,3.20
2023-05-01T04:26:23.690Z,3.03
2023-05-01T04:29:10.768Z,3.00
2023-05-01T04:31:57.926Z,3.33
2023-05-01T04:34:45.120Z,3.73
2023-05-01T04:37:32.171Z,3.20
2023-05-01T04:40:19.277Z,3.47
2023-05-01T04:43:07.183Z,3.50
2023-05-01T04:45:55.132Z,4.37
2023-05-01T04:48:42.400Z,3.20
2023-05-01T04:51:29.631Z,3.30
2023-05-01T04:54:16.643Z,3.30
2023-05-01T04:57:04.128Z,3.23
2023-05-01T04:59:53.282Z,3.03
2023-05-01T05:02:40.374Z,3.33
2023-05-01T05:05:28.414Z,3.20
2023-05-01T05:08:15.419Z,4.10
2023-05-01T05:11:08.504Z,4.27
2023-05-01T05:14:13.930Z,3.43
2023-05-01T05:17:01.392Z,3.80
2023-05-01T05:19:48.466Z,4.53
2023-05-01T05:22:37.461Z,4.40
2023-05-01T05:25:38.109Z,4.27
2023-05-01T05:28:25.100Z,5.93
2023-05-01T05:31:12.150Z,5.07
2023-05-01T05:33:59.237Z,5.03
2023-05-01T05:36:46.419Z,4.80
2023-05-01T05:39:34.644Z,4.53
2023-05-01T05:42:21.666Z,4.60
2023-05-01T05:45:09.555Z,4.90
2023-05-01T05:47:57.041Z,5.00
2023-05-01T05:50:46.589Z,4.73
2023-05-01T05:53:33.695Z,4.43
2023-05-01T05:56:20.783Z,5.23
2023-05-01T05:59:07.969Z,4.60
2023-05-01T06:01:55.002Z,4.63
2023-05-01T06:04:42.149Z,4.60
2023-05-01T06:07:29.152Z,4.70
2023-05-01T06:10:16.172Z,4.70
2023-05-01T06:13:13.210Z,4.60
2023-05-01T06:16:03.906Z,4.97
2023-05-01T06:18:51.460Z,4.80
2023-05-01T06:21:38.946Z,6.60
2023-05-01T06:24:27.429Z,4.87
2023-05-01T06:27:17.437Z,4.60
2023-05-01T06:30:05.331Z,4.97
2023-05-01T06:32:54.292Z,4.40
2023-05-01T06:35:41.886Z,4.43
2023-05-01T06:38:28.899Z,5.70
2023-05-01T06:41:16.873Z,5.13
2023-05-01T06:44:05.145Z,4.93
2023-05-01T06:46:52.311Z,4.30
2023-05-01T06:49:39.341Z,5.00
2023-05-01T06:52:27.654Z,4.57
2023-05-01T06:55:14.735Z,5.03
2023-05-01T06:58:06.905Z,6.17
2023-05-01T07:00:59.755Z,5.10
2023-05-01T07:03:47.152Z,4.63
2023-05-01T07:06:35.053Z,4.77
2023-05-01T07:09:22.082Z,4.57
2023-05-01T07:12:09.196Z,4.37
2023-05-01T07:14:57.061Z,3.93
2023-05-01T07:17:44.511Z,3.57
2023-05-01T07:20:32.501Z,4.27
2023-05-01T07:23:19.893Z,3.73
2023-05-01T07:26:06.934Z,3.77
2023-05-01T07:28:53.956Z,3.60
2023-05-01T07:31:41.996Z,3.20
2023-05-01T07:34:29.020Z,3.77
2023-05-01T07:37:16.260Z,4.33
2023-05-01T07:40:03.663Z,3.90
2023-05-01T07:42:52.412Z,3.33
2023-05-01T07:45:42.814Z,3.27
2023-05-01T07:48:30.051Z,3.23
2023-05-01T07:51:18.441Z,3.53
2023-05-01T07:54:05.738Z,3.20
2023-05-01T07:56:52.862Z,3.20
2023-05-01T07:59:39.887Z,3.30
2023-05-01T08:02:27.307Z,3.20
2023-05-01T08:05:14.492Z,3.37
2023-05-01T08:08:01.464Z,3.20
2023-05-01T08:10:48.793Z,3.40
2023-05-01T08:13:35.943Z,3.20
2023-05-01T08:16:23.009Z,4.93
2023-05-01T08:19:10.054Z,3.20
2023-05-01T08:21:57.093Z,3.07
2023-05-01T08:24:44.103Z,3.10
2023-05-01T08:27:31.493Z,2.90
2023-05-01T08:30:18.508Z,3.10
2023-05-01T08:33:05.651Z,2.90
2023-05-01T08:35:53.014Z,3.57
2023-05-01T08:38:39.992Z,3.10
2023-05-01T08:41:28.613Z,3.23
2023-05-01T08:44:16.795Z,3.17
2023-05-01T08:47:17.777Z,2.63
2023-05-01T08:50:10.012Z,3.43
2023-05-01T08:52:58.598Z,3.00
2023-05-01T08:55:48.921Z,3.07
2023-05-01T08:58:36.980Z,2.77
2023-05-01T09:01:27.956Z,3.17
2023-05-01T09:04:16.280Z,3.13
2023-05-01T09:07:03.871Z,3.40
2023-05-01T09:09:50.892Z,3.27
2023-05-01T09:12:39.626Z,3.17
2023-05-01T09:15:27.635Z,2.73
2023-05-01T09:18:14.615Z,3.03
2023-05-01T09:21:03.429Z,2.80
2023-05-01T09:23:53.870Z,2.60
2023-05-01T09:26:41.969Z,4.97
2023-05-01T09:29:41.019Z,3.23
2023-05-01T09:32:28.430Z,4.33
2023-05-01T09:35:17.908Z,3.33
2023-05-01T09:38:04.925Z,2.70
2023-05-01T09:40:54.474Z,2.87
2023-05-01T09:43:41.661Z,3.00
2023-05-01T09:46:28.808Z,3.03
2023-05-01T09:49:15.996Z,2.60
2023-05-01T09:52:12.096Z,2.70
2023-05-01T09:55:18.623Z,2.37
2023-05-01T09:58:06.534Z,2.60
2023-05-01T10:00:53.636Z,2.50
2023-05-01T10:03:42.995Z,2.80
2023-05-01T10:06:30.353Z,3.30
2023-05-01T10:09:27.813Z,3.27
2023-05-01T10:12:23.980Z,2.63
2023-05-01T10:15:23.997Z,2.57
2023-05-01T10:18:14.402Z,2.90
2023-05-01T10:21:01.515Z,3.07
2023-05-01T10:23:48.710Z,2.70
2023-05-01T10:26:37.051Z,2.53
2023-05-01T10:29:27.707Z,2.73
2023-05-01T10:32:14.998Z,2.80
2023-05-01T10:35:07.163Z,2.70
2023-05-01T10:38:02.534Z,3.00
2023-05-01T10:40:50.680Z,3.10
2023-05-01T10:43:37.692Z,3.53
2023-05-01T10:46:26.947Z,3.60
2023-05-01T10:49:14.028Z,2.73
2023-05-01T10:52:02.527Z,3.00
2023-05-01T10:54:49.516Z,3.33
2023-05-01T10:57:46.704Z,3.00
2023-05-01T11:00:34.350Z,3.20
2023-05-01T11:03:21.426Z,2.90
2023-05-01T11:06:08.779Z,2.93
2023-05-01T11:08:56.807Z,2.93
2023-05-01T11:11:43.744Z,3.80
2023-05-01T11:14:57.067Z,3.20
2023-05-01T11:17:44.347Z,3.37
2023-05-01T11:20:37.246Z,3.37
2023-05-01T11:23:25.499Z,3.37
2023-05-01T11:26:13.865Z,4.03
2023-05-01T11:29:01.660Z,2.80
2023-05-01T11:31:49.004Z,3.00
2023-05-01T11:34:37.934Z,2.50
2023-05-01T11:37:42.430Z,3.43
2023-05-01T11:40:31.715Z,3.47
2023-05-01T11:43:18.859Z,3.13
2023-05-01T11:46:05.999Z,2.63
2023-05-01T11:48:57.066Z,2.90
2023-05-01T11:51:44.020Z,2.80
2023-05-01T11:54:31.250Z,2.60
2023-05-01T11:57:20.111Z,3.50
2023-05-01T12:00:08.608Z,3.33
2023-05-01T12:03:03.794Z,3.50
2023-05-01T12:05:52.723Z,4.00
2023-05-01T12:08:43.848Z,3.47
2023-05-01T12:11:30.969Z,3.73
2023-05-01T12:14:18.957Z,3.60
2023-05-01T12:17:07.138Z,3.67
2023-05-01T12:19:54.329Z,3.67
2023-05-01T12:22:50.932Z,3.93
2023-05-01T12:25:39.608Z,3.03
2023-05-01T12:28:28.629Z,3.67
2023-05-01T12:31:20.891Z,5.03
2023-05-01T12:34:08.265Z,5.03
2023-05-01T12:36:55.551Z,6.93
2023-05-01T12:39:44.702Z,6.30
2023-05-01T12:42:32.489Z,5.77
2023-05-01T12:45:19.636Z,5.23
2023-05-01T12:48:11.966Z,5.57
2023-05-01T12:51:00.476Z,6.17
2023-05-01T12:53:48.729Z,6.17
2023-05-01T12:56:38.702Z,6.10
2023-05-01T12:59:27.581Z,5.67
2023-05-01T13:02:17.078Z,6.20
2023-05-01T13:05:08.638Z,6.23
2023-05-01T13:07:58.947Z,5.77
2023-05-01T13:10:46.907Z,6.10
2023-05-01T13:13:35.932Z,5.80
2023-05-01T13:16:24.736Z,6.33
2023-05-01T13:19:23.884Z,6.83
2023-05-01T13:22:13.248Z,5.70
2023-05-01T13:25:21.496Z,5.80
2023-05-01T13:28:09.299Z,6.47
2023-05-01T13:30:56.308Z,6.30
2023-05-01T13:33:43.609Z,6.80
2023-05-01T13:36:33.851Z,5.93
2023-05-01T13:39:21.466Z,6.17
2023-05-01T13:42:09.262Z,6.50
2023-05-01T13:44:57.761Z,6.20
2023-05-01T13:47:44.813Z,5.63
2023-05-01T13:50:31.880Z,5.90
2023-05-01T13:53:18.911Z,6.20
2023-05-01T13:56:09.985Z,6.20
2023-05-01T13:58:59.689Z,5.97
2023-05-01T14:01:49.412Z,6.57
2023-05-01T14:04:36.648Z,8.73
2023-05-01T14:07:25.165Z,5.80
2023-05-01T14:10:13.593Z,5.47
2023-05-01T14:13:01.199Z,6.27
2023-05-01T14:15:49.282Z,5.70
2023-05-01T14:18:43.445Z,6.53
2023-05-01T14:21:30.459Z,5.73
2023-05-01T14:24:18.325Z,7.90
2023-05-01T14:27:08.161Z,6.13
2023-05-01T14:30:00.570Z,6.10
2023-05-01T14:32:49.838Z,8.00
2023-05-01T14:35:43.646Z,5.73
2023-05-01T14:38:38.614Z,6.20
2023-05-01T14:41:25.820Z,6.13
2023-05-01T14:44:15.615Z,6.30
2023-05-01T14:47:02.682Z,7.47
2023-05-01T14:49:53.342Z,5.97
2023-05-01T14:52:42.724Z,6.57
2023-05-01T14:55:34.485Z,6.13
2023-05-01T14:58:21.583Z,6.40
2023-05-01T15:01:08.676Z,6.37
2023-05-01T15:03:56.291Z,6.63
2023-05-01T15:06:43.617Z,6.13
2023-05-01T15:09:33.590Z,5.50
2023-05-01T15:12:20.769Z,6.00
2023-05-01T15:15:09.424Z,5.13
2023-05-01T15:17:56.461Z,5.57
2023-05-01T15:20:43.553Z,6.10
2023-05-01T15:23:31.582Z,5.67
2023-05-01T15:26:18.587Z,5.67
2023-05-01T15:29:05.582Z,6.10
2023-05-01T15:32:04.555Z,5.50
2023-05-01T15:34:58.391Z,5.60
2023-05-01T15:37:46.089Z,5.43
2023-05-01T15:40:34.867Z,5.13
2023-05-01T15:43:23.271Z,5.17
2023-05-01T15:46:10.427Z,5.33
2023-05-01T15:48:57.988Z,6.03
2023-05-01T15:51:44.956Z,5.93
2023-05-01T15:54:32.028Z,5.70
2023-05-01T15:57:19.012Z,5.73
2023-05-01T16:00:08.823Z,5.40
2023-05-01T16:02:55.891Z,4.93
2023-05-01T16:05:47.051Z,6.47
2023-05-01T16:08:34.114Z,5.80
2023-05-01T16:11:21.349Z,5.57
2023-05-01T16:14:09.935Z,5.50
2023-05-01T16:16:57.159Z,5.13
2023-05-01T16:19:44.336Z,5.37
2023-05-01T16:22:32.734Z,5.70
2023-05-01T16:25:19.887Z,6.13
2023-05-01T16:28:07.086Z,5.80
2023-05-01T16:30:54.291Z,5.27
2023-05-01T16:33:41.495Z,5.50
2023-05-01T16:36:29.055Z,5.27
2023-05-01T16:39:19.173Z,5.03
2023-05-01T16:42:06.311Z,5.10
2023-05-01T16:44:53.379Z,4.83
2023-05-01T16:47:40.569Z,5.13
2023-05-01T16:50:27.678Z,5.40
2023-05-01T16:53:15.252Z,5.27
2023-05-01T16:56:02.377Z,5.40
2023-05-01T16:58:49.458Z,5.03
2023-05-01T17:01:36.529Z,5.13
2023-05-01T17:04:24.903Z,5.77
2023-05-01T17:07:12.109Z,5.40
2023-05-01T17:09:59.425Z,5.20
2023-05-01T17:12:47.905Z,5.50
2023-05-01T17:15:34.924Z,5.50
2023-05-01T17:18:21.917Z,6.10
2023-05-01T17:21:09.562Z,5.20
2023-05-01T17:23:56.570Z,5.23
2023-05-01T17:26:43.631Z,5.50
2023-05-01T17:29:30.692Z,5.33
2023-05-01T17:32:33.200Z,5.63
2023-05-01T17:35:23.253Z,5.63
2023-05-01T17:38:10.259Z,5.53
2023-05-01T17:40:57.249Z,5.93
2023-05-01T17:43:45.762Z,5.33
2023-05-01T17:46:33.307Z,6.07
2023-05-01T17:49:20.687Z,5.23
2023-05-01T17:52:08.569Z,5.60
2023-05-01T17:54:55.526Z,5.57
2023-05-01T17:57:42.560Z,5.00
2023-05-01T18:00:31.566Z,5.30
2023-05-01T18:03:18.578Z,5.03
2023-05-01T18:06:05.876Z,6.00
2023-05-01T18:08:52.916Z,5.33
2023-05-01T18:11:39.885Z,6.10
2023-05-01T18:14:26.924Z,5.50
2023-05-01T18:17:14.135Z,5.13
2023-05-01T18:20:01.657Z,5.30
2023-05-01T18:22:48.932Z,5.30
2023-05-01T18:25:37.372Z,5.90
2023-05-01T18:28:24.553Z,5.43
2023-05-01T18:31:11.570Z,5.00
2023-05-01T18:33:58.602Z,6.20
2023-05-01T18:36:52.062Z,6.30
2023-05-01T18:39:39.159Z,6.27
2023-05-01T18:42:26.124Z,5.63
2023-05-01T18:45:14.190Z,6.13
2023-05-01T18:48:01.364Z,6.67
2023-05-01T18:50:57.520Z,5.33
2023-05-01T18:53:54.666Z,5.97
2023-05-01T18:56:41.634Z,5.93
2023-05-01T18:59:31.008Z,5.03
2023-05-01T19:02:18.033Z,5.80
2023-05-01T19:05:06.387Z,5.30
2023-05-01T19:07:55.178Z,6.00
2023-05-01T19:10:42.400Z,5.63
2023-05-01T19:13:29.422Z,5.90
2023-05-01T19:16:16.439Z,6.30
2023-05-01T19:19:03.539Z,6.20
2023-05-01T19:21:50.963Z,6.87
2023-05-01T19:24:37.990Z,5.63
2023-05-01T19:27:25.470Z,5.70
2023-05-01T19:30:12.490Z,6.00
2023-05-01T19:32:59.873Z,6.10
2023-05-01T19:35:46.888Z,6.07
2023-05-01T19:38:33.980Z,5.60
2023-05-01T19:41:20.976Z,5.87
2023-05-01T19:44:08.306Z,5.10
2023-05-01T19:46:55.361Z,4.97
2023-05-01T19:49:43.719Z,5.40
2023-05-01T19:52:30.683Z,7.57
2023-05-01T19:55:18.036Z,5.77
2023-05-01T19:58:05.489Z,5.43
2023-05-01T20:00:57.712Z,5.03
2023-05-01T20:03:44.708Z,4.57
2023-05-01T20:06:32.230Z,4.80
2023-05-01T20:09:19.315Z,5.00
2023-05-01T20:12:06.450Z,4.77
2023-05-01T20:14:53.687Z,5.03
2023-05-01T20:17:41.800Z,5.90
2023-05-01T20:20:30.336Z,8.33
2023-05-01T20:23:19.513Z,4.43
2023-05-01T20:26:06.580Z,5.07
2023-05-01T20:28:53.858Z,6.00
2023-05-01T20:31:40.861Z,6.33
2023-05-01T20:34:27.865Z,4.80
2023-05-01T20:37:14.847Z,4.80
2023-05-01T20:40:02.551Z,4.87
2023-05-01T20:42:49.539Z,5.23
2023-05-01T20:45:36.939Z,5.33
2023-05-01T20:48:25.013Z,4.50
2023-05-01T20:51:12.018Z,5.27
2023-05-01T20:53:59.001Z,4.17
2023-05-01T20:56:46.075Z,4.87
2023-05-01T20:59:33.077Z,5.10
2023-05-01T21:02:20.049Z,5.40
2023-05-01T21:05:10.128Z,5.20
2023-05-01T21:07:58.195Z,5.60
2023-05-01T21:10:45.385Z,5.10
2023-05-01T21:13:32.570Z,5.33
2023-05-01T21:16:19.848Z,5.30
2023-05-01T21:19:07.581Z,4.87
2023-05-01T21:21:55.349Z,5.57
2023-05-01T21:24:45.044Z,5.00
2023-05-01T21:27:32.073Z,5.47
2023-05-01T21:30:33.348Z,5.07
2023-05-01T21:33:20.398Z,5.97
2023-05-01T21:36:07.400Z,7.60
2023-05-01T21:38:54.426Z,6.67
2023-05-01T21:41:41.907Z,5.63
2023-05-01T21:44:29.979Z,6.00
2023-05-01T21:47:17.080Z,5.60
2023-05-01T21:50:06.363Z,5.73
2023-05-01T21:52:53.435Z,5.57
2023-05-01T21:55:40.390Z,5.67
2023-05-01T21:58:27.987Z,5.27
2023-05-01T22:01:16.671Z,5.03
2023-05-01T22:04:03.906Z,5.83
2023-05-01T22:06:51.025Z,5.53
2023-05-01T22:09:38.066Z,5.67
2023-05-01T22:12:25.008Z,4.63
2023-05-01T22:15:13.501Z,5.20
2023-05-01T22:18:00.807Z,5.83
2023-05-01T22:20:47.880Z,5.67
2023-05-01T22:23:34.822Z,6.03
2023-05-01T22:26:21.789Z,5.80
2023-05-01T22:29:08.747Z,6.13
2023-05-01T22:31:56.826Z,5.47
2023-05-01T22:34:43.916Z,5.30
2023-05-01T22:37:30.903Z,6.30
2023-05-01T22:40:18.052Z,6.13
2023-05-01T22:43:06.130Z,6.37
2023-05-01T22:45:53.158Z,5.90
2023-05-01T22:48:40.185Z,6.87
2023-05-01T22:51:27.460Z,6.70
2023-05-01T22:54:14.416Z,6.27
2023-05-01T22:57:01.374Z,6.87
2023-05-01T22:59:48.719Z,6.10
2023-05-01T23:02:35.717Z,5.60
2023-05-01T23:05:22.738Z,6.33
2023-05-01T23:08:09.674Z,6.03
2023-05-01T23:10:56.692Z,5.93
2023-05-01T23:13:46.928Z,5.77
2023-05-01T23:16:41.680Z,6.50
2023-05-01T23:19:28.879Z,6.00
2023-05-01T23:22:15.897Z,5.77
2023-05-01T23:25:03.287Z,6.20
2023-05-01T23:27:52.025Z,5.90
2023-05-01T23:30:40.576Z,6.13
2023-05-01T23:33:34.317Z,5.70
2023-05-01T23:36:21.720Z,6.07
2023-05-01T23:39:08.651Z,6.23
2023-05-01T23:41:55.682Z,6.50
2023-05-01T23:44:42.766Z,6.50
2023-05-01T23:47:30.076Z,6.23
2023-05-01T23:50:17.246Z,7.10
2023-05-01T23:53:08.262Z,7.00
2023-05-01T23:55:55.225Z,7.23
2023-05-01T23:58:42.763Z,8.20
